Welcome to our new website - Welkom op onze vernieuwde website - Bienvenue sur notre nouveau site web - Willkommen auf unserer neuen Website
Check our progress frequently. Prüfen Sie unsere Fortschritte regelmäßig. Consultez notre progression fréquemment. Komt u straks nog eens terug


Bezoek onze andere website:

Template documentation
and downloads

And another site



METAR rapporten vliegvelden

   
EBBR - Brussels International Airport, Belgium
Afstand tot: W 14 km
Gewijzigd: Oct 16 2019 8:50 am
Licht bewolkt  
Licht bewolkt  
   Wind: Zuiden 19 km/h
Wind: Zuiden 19 km/h
Temperatuur: 11°C
Dauwpunt: 9°C
Vochtigheid: 88%
Barometer: 1008 hPa
Bewolking: Licht bewolkt
Zicht: meer dan 10 km
Bewolking: Licht bewolkt 975.4 m
EBBR 160650Z 17010KT 9999 FEW032 11/09 Q1008 NOSIG
EBBE - Beauvechain (Bevekom), Belgium
Afstand tot: ZZO 17 km
Gewijzigd: Oct 16 2019 8:55 am
Grotendeels bewolkt  
Grotendeels bewolkt  
   Wind: Zuiden 19 km/h
Wind: Zuiden 19 km/h
Temperatuur: 11°C
Dauwpunt: 10°C
Vochtigheid: 94%
Barometer: 1009 hPa
Bewolking: Grotendeels bewolkt
Zicht: meer dan 10 km
Bewolking: Grotendeels bewolkt 335.3 m
EBBE 160655Z 18010KT 9999 BKN011 11/10 Q1009 GRN WHT TEMPO GRN
EBDT - Schaffen, Belgium
Afstand tot: ONO 29 km
Gewijzigd: Oct 16 2019 8:55 am
Gedeeltelijk bewolkt  
Gedeeltelijk bewolkt  
   Wind: Zuiden 15 km/h
Wind: Zuiden 15 km/h
Temperatuur: 11°C
Dauwpunt: 10°C
Vochtigheid: 94%
Barometer: 1009 hPa
Bewolking: Gedeeltelijk bewolkt
Zicht: meer dan 10 km
Bewolking: Licht bewolkt 3657.6 m,
Gedeeltelijk bewolkt 4267.2 m
EBDT 160655Z 18008KT 9999 FEW120 SCT140 11/10 Q1009 BLU BLU BECMG WHT
EBAW - Antwerp/Deurne, Belgium
Afstand tot: NNW 38 km
Gewijzigd: Oct 16 2019 8:50 am
Helder  
Helder  
   Wind: ZZO 13 km/h
Wind: ZZO 13 km/h
Temperatuur: 11°C
Dauwpunt: 9°C
Vochtigheid: 88%
Barometer: 1008 hPa
Zicht: meer dan 10 km
Bewolking: Helder
EBAW 160650Z 15007KT CAVOK 11/09 Q1008 NOSIG
EBCI - Charleroi/Gosselies, Belgium
Afstand tot: ZZW 51 km
Gewijzigd: Oct 16 2019 8:50 am
Wat regen mogelijk, Grotendeels bewolkt  
Wat regen mogelijk, Grotendeels bewolkt  
   Wind: Zuiden 19 km/h
Wind: Zuiden 19 km/h
Temperatuur: 11°C
Dauwpunt: 10°C
Vochtigheid: 94%
Barometer: 1009 hPa
Bewolking: Grotendeels bewolkt
Zicht: meer dan 10 km
Bewolking: Gedeeltelijk bewolkt 213.4 m,
Grotendeels bewolkt 274.3 m
EBCI 160650Z 18010KT 150V210 9999 -RA SCT007 BKN009 11/10 Q1009 TEMPO 4000 RA
EBLG - Bierset/Liege, Belgium
Afstand tot: OZO 60 km
Gewijzigd: Oct 16 2019 8:50 am
Gedeeltelijk bewolkt  
Gedeeltelijk bewolkt  
   Wind: Zuiden 26 km/h
Wind: Zuiden 26 km/h
Temperatuur: 11°C
Dauwpunt: 9°C
Vochtigheid: 88%
Barometer: 1010 hPa
Bewolking: Gedeeltelijk bewolkt
Zicht: meer dan 10 km
Bewolking: Gedeeltelijk bewolkt 304.8 m
EBLG 160650Z 19014KT 9999 SCT010 11/09 Q1010 TEMPO 4000 RA BKN009

Script ontwikkeld door  Saratoga-weather.org Aangepast voor de template door  Weerstation Leuven

U vindt ons ook hier:

Het Weer Aktueel

UK Metoffice

European Weather Network

WeatherCloud

Weather Underground

AWEKAS

Apparatuur in gebruik:

Weerstation
Davis VP2

Weerprogramma
Meteobridge

Weercomputer
Tl-mr3020

Webleverancier
Robohost

Davis VP2

Meteobridge

Tl-mr3020

Robohost